Terminal Aerodrome Forecast
Issued by NWS Austin/San Antonio, TX

Home | Current Version | Previous Version | Text Only | Print | Product List | Glossary On
Versions: 1 2 3 4 5 6 7 8 9 10 11 12 13 14 15 16 17 18 19 20 21 22
000
FTUS44 KEWX 031136
TAFAUS
TAF
KAUS 031136Z 0312/0418 VRB05KT P6SM BKN015
      TEMPO 0312/0315 4SM BR BKN007
     FM031500 16006KT P6SM BKN015
     FM031600 15006KT P6SM SCT040
     FM032200 14010KT P6SM SCT060
     FM040900 16008KT P6SM BKN015=

USA.gov is the U.S. government's official web portal to all federal, state and local government web resources and services.